KHBB/HBB METAR and TAF weather

Enter ICAO airport designator
Station Type Date Time Source
KHBB METAR 2012/02/27 04:00 UTC NOAA

KHBB 270400Z 00000KT CAVOK M03/M04 Q1018 A3007


Station Type Date Time Source
KHBB Decoded METAR 2012/02/27 04:00 UTC NOAA

Station name not available
Feb 26, 2012 - 11:00 PM EST / 2012.02.27 0400 UTC
Wind: Calm:0
Visibility: greater than 7 mile(s):0
Temperature: 26 F (-3 C)
Dew Point: 24 F (-4 C)
Relative Humidity: 92%
Pressure (altimeter): 30.07 in. Hg (1018 hPa)
ob: KHBB 270400Z 00000KT CAVOK M03/M04 Q1018 A3007
cycle: 4

Station Type Date Time Source
KHBB TAF UTC NOAA

Error!


Example: see airport list